createdAt,value
2023-05-12T00:00:50.988Z,62.94
2023-05-12T00:03:17.491Z,63.13
2023-05-12T00:05:43.728Z,63.13
2023-05-12T00:08:10.114Z,63.13
2023-05-12T00:10:36.525Z,62.88
2023-05-12T00:13:02.948Z,62.78
2023-05-12T00:15:29.377Z,63.00
2023-05-12T00:17:55.834Z,62.97
2023-05-12T00:20:22.293Z,63.43
2023-05-12T00:22:48.529Z,63.20
2023-05-12T00:25:14.939Z,63.10
2023-05-12T00:27:41.332Z,63.17
2023-05-12T00:30:07.751Z,63.21
2023-05-12T00:32:34.280Z,63.24
2023-05-12T00:35:00.583Z,63.15
2023-05-12T00:37:27.014Z,63.15
2023-05-12T00:39:53.435Z,63.11
2023-05-12T00:42:19.776Z,63.30
2023-05-12T00:44:46.160Z,63.41
2023-05-12T00:47:12.576Z,63.52
2023-05-12T00:49:38.990Z,63.53
2023-05-12T00:52:05.390Z,63.95
2023-05-12T00:54:31.772Z,63.81
2023-05-12T00:56:58.199Z,63.90
2023-05-12T00:59:24.591Z,64.19
2023-05-12T01:01:50.988Z,64.25
2023-05-12T01:04:17.426Z,64.42
2023-05-12T01:06:43.778Z,64.71
2023-05-12T01:09:10.193Z,65.23
2023-05-12T01:11:36.639Z,65.11
2023-05-12T01:14:02.988Z,65.53
2023-05-12T01:16:29.387Z,65.56
2023-05-12T01:18:55.867Z,65.83
2023-05-12T01:21:22.192Z,66.08
2023-05-12T01:23:48.608Z,66.28
2023-05-12T01:26:14.969Z,66.62
2023-05-12T01:28:41.386Z,66.72
2023-05-12T01:31:07.833Z,67.00
2023-05-12T01:33:34.157Z,67.41
2023-05-12T01:36:00.570Z,67.67
2023-05-12T01:38:26.951Z,67.89
2023-05-12T01:40:53.318Z,68.24
2023-05-12T01:43:21.942Z,68.29
2023-05-12T01:45:46.049Z,68.90
2023-05-12T01:48:12.429Z,69.14
2023-05-12T01:50:38.843Z,69.10
2023-05-12T01:53:05.196Z,69.33
2023-05-12T01:55:31.599Z,69.50
2023-05-12T01:57:58.025Z,69.76
2023-05-12T02:00:24.386Z,70.18
2023-05-12T02:02:50.830Z,70.52
2023-05-12T02:05:17.177Z,70.91
2023-05-12T02:07:43.555Z,71.47
2023-05-12T02:10:09.920Z,71.46
2023-05-12T02:12:36.401Z,71.47
2023-05-12T02:15:02.733Z,71.51
2023-05-12T02:17:29.141Z,71.91
2023-05-12T02:19:55.522Z,72.12
2023-05-12T02:22:21.900Z,72.49
2023-05-12T02:24:48.267Z,72.60
2023-05-12T02:27:14.719Z,72.86
2023-05-12T02:29:41.087Z,72.98
2023-05-12T02:32:07.541Z,73.07
2023-05-12T02:34:33.888Z,73.36
2023-05-12T02:37:00.248Z,73.38
2023-05-12T02:39:26.616Z,73.72
2023-05-12T02:41:53.040Z,74.04
2023-05-12T02:44:19.440Z,74.02
2023-05-12T02:46:45.858Z,74.16
2023-05-12T02:49:12.236Z,74.26
2023-05-12T02:51:38.621Z,74.21
2023-05-12T02:54:04.988Z,74.22
2023-05-12T02:56:33.792Z,74.47
2023-05-12T02:58:57.793Z,75.03
2023-05-12T03:01:24.230Z,75.10
2023-05-12T03:03:50.729Z,75.30
2023-05-12T03:06:16.987Z,75.69
2023-05-12T03:08:43.408Z,75.99
2023-05-12T03:11:09.769Z,75.87
2023-05-12T03:13:36.165Z,76.04
2023-05-12T03:16:02.532Z,76.02
2023-05-12T03:18:28.979Z,76.35
2023-05-12T03:20:55.653Z,76.47
2023-05-12T03:23:22.052Z,76.49
2023-05-12T03:25:48.760Z,76.78
2023-05-12T03:28:15.175Z,76.81
2023-05-12T03:30:41.558Z,77.00
2023-05-12T03:33:07.965Z,77.05
2023-05-12T03:35:34.360Z,77.42
2023-05-12T03:38:00.766Z,77.66
2023-05-12T03:40:27.180Z,77.96
2023-05-12T03:42:53.600Z,78.08
2023-05-12T03:45:19.973Z,78.34
2023-05-12T03:47:46.485Z,78.37
2023-05-12T03:50:12.797Z,78.50
2023-05-12T03:52:39.133Z,78.31
2023-05-12T03:55:05.519Z,78.67
2023-05-12T03:57:31.911Z,78.59
2023-05-12T03:59:58.284Z,78.54
2023-05-12T04:02:24.810Z,78.57
2023-05-12T04:04:51.106Z,78.72
2023-05-12T04:07:17.505Z,78.83
2023-05-12T04:09:43.920Z,79.08
2023-05-12T04:12:10.313Z,79.27
2023-05-12T04:14:42.766Z,79.34
2023-05-12T04:17:03.041Z,79.43
2023-05-12T04:19:29.416Z,79.31
2023-05-12T04:21:55.787Z,79.27
2023-05-12T04:24:22.197Z,79.30
2023-05-12T04:26:48.625Z,79.42
2023-05-12T04:29:15.030Z,79.56
2023-05-12T04:31:41.424Z,79.61
2023-05-12T04:34:07.856Z,79.63
2023-05-12T04:36:34.254Z,79.76
2023-05-12T04:39:00.650Z,79.72
2023-05-12T04:41:27.075Z,79.96
2023-05-12T04:46:19.902Z,80.22
2023-05-12T04:48:46.361Z,80.17
2023-05-12T04:51:12.728Z,80.28
2023-05-12T04:53:39.106Z,80.35
2023-05-12T04:56:08.899Z,80.32
2023-05-12T04:58:35.311Z,80.27
2023-05-12T05:01:01.756Z,80.45
2023-05-12T05:03:28.186Z,80.59
2023-05-12T05:05:54.470Z,80.66
2023-05-12T05:08:20.881Z,80.79
2023-05-12T05:10:47.339Z,86.57
2023-05-12T05:13:13.965Z,93.89
2023-05-12T05:15:40.614Z,97.64
2023-05-12T05:18:07.026Z,99.15
2023-05-12T05:20:33.539Z,97.31
2023-05-12T05:23:00.011Z,94.72
2023-05-12T05:25:26.686Z,92.28
2023-05-12T05:27:53.096Z,89.87
2023-05-12T05:30:19.584Z,88.10
2023-05-12T05:32:46.146Z,86.83
2023-05-12T05:35:12.554Z,85.89
2023-05-12T05:37:38.966Z,85.41
2023-05-12T05:40:05.405Z,85.25
2023-05-12T05:42:32.270Z,85.33
2023-05-12T05:44:58.674Z,85.11
2023-05-12T05:47:25.065Z,84.65
2023-05-12T05:49:51.437Z,84.55
2023-05-12T05:52:17.849Z,84.58
2023-05-12T05:54:44.220Z,84.51
2023-05-12T05:57:10.684Z,84.51
2023-05-12T05:59:37.106Z,84.26
2023-05-12T06:02:03.631Z,84.36
2023-05-12T06:04:29.935Z,84.28
2023-05-12T06:06:56.271Z,84.25
2023-05-12T06:09:22.721Z,84.23
2023-05-12T06:11:49.133Z,84.46
2023-05-12T06:14:15.496Z,84.40
2023-05-12T06:16:43.119Z,84.71
2023-05-12T06:19:09.506Z,84.56
2023-05-12T06:21:35.853Z,84.40
2023-05-12T06:24:02.210Z,84.12
2023-05-12T06:26:28.576Z,84.29
2023-05-12T06:28:55.007Z,84.11
2023-05-12T06:31:21.448Z,83.92
2023-05-12T06:33:47.802Z,83.72
2023-05-12T06:36:14.254Z,83.63
2023-05-12T06:38:40.653Z,83.62
2023-05-12T06:41:07.066Z,83.42
2023-05-12T06:43:33.482Z,83.39
2023-05-12T06:45:59.880Z,83.25
2023-05-12T06:48:26.263Z,83.10
2023-05-12T06:50:52.716Z,82.89
2023-05-12T06:53:19.124Z,82.57
2023-05-12T06:55:45.521Z,82.32
2023-05-12T06:58:11.896Z,82.20
2023-05-12T07:00:38.259Z,82.45
2023-05-12T07:03:04.857Z,82.39
2023-05-12T07:05:31.277Z,82.03
2023-05-12T07:07:57.642Z,82.00
2023-05-12T07:10:24.018Z,81.90
2023-05-12T07:12:50.419Z,82.16
2023-05-12T07:15:16.831Z,82.07
2023-05-12T07:17:43.285Z,81.83
2023-05-12T07:20:09.652Z,87.82
2023-05-12T07:22:37.938Z,91.11
2023-05-12T07:25:02.514Z,90.39
2023-05-12T07:27:28.895Z,87.30
2023-05-12T07:29:55.264Z,84.81
2023-05-12T07:32:21.646Z,83.77
2023-05-12T07:34:48.089Z,83.59
2023-05-12T07:37:14.491Z,82.09
2023-05-12T07:39:40.943Z,81.11
2023-05-12T07:42:07.305Z,80.53
2023-05-12T07:44:33.710Z,80.27
2023-05-12T07:47:00.200Z,80.10
2023-05-12T07:49:26.512Z,79.97
2023-05-12T07:51:52.886Z,80.21
2023-05-12T07:54:19.552Z,79.87
2023-05-12T07:56:45.937Z,78.89
2023-05-12T07:59:12.328Z,78.48
2023-05-12T08:01:38.807Z,78.64
2023-05-12T08:04:05.244Z,79.36
2023-05-12T08:06:31.553Z,78.65
2023-05-12T08:08:58.017Z,77.83
2023-05-12T08:11:24.355Z,77.11
2023-05-12T08:13:50.734Z,77.44
2023-05-12T08:16:17.170Z,78.11
2023-05-12T08:18:43.599Z,78.16
2023-05-12T08:21:10.080Z,77.43
2023-05-12T08:23:36.543Z,76.57
2023-05-12T08:26:02.910Z,76.11
2023-05-12T08:28:29.332Z,76.27
2023-05-12T08:30:55.789Z,75.65
2023-05-12T08:33:22.159Z,75.23
2023-05-12T08:35:48.559Z,75.15
2023-05-12T08:38:15.018Z,73.96
2023-05-12T08:40:41.432Z,74.20
2023-05-12T08:43:08.169Z,74.73
2023-05-12T08:45:34.496Z,73.40
2023-05-12T08:48:00.944Z,73.54
2023-05-12T08:50:27.274Z,72.08
2023-05-12T08:52:53.692Z,71.21
2023-05-12T08:55:20.432Z,71.32
2023-05-12T08:57:46.652Z,71.09
2023-05-12T09:00:13.005Z,70.43
2023-05-12T09:02:52.058Z,69.63
2023-05-12T09:05:06.101Z,70.67
2023-05-12T09:07:32.521Z,70.09
2023-05-12T09:09:58.922Z,70.05
2023-05-12T09:12:25.311Z,70.25
2023-05-12T09:14:51.718Z,69.23
2023-05-12T09:17:18.097Z,69.03
2023-05-12T09:19:44.503Z,68.78
2023-05-12T09:22:10.913Z,70.01
2023-05-12T09:24:37.310Z,70.20
2023-05-12T09:27:03.688Z,69.84
2023-05-12T09:29:31.747Z,70.17
2023-05-12T09:31:56.555Z,70.75
2023-05-12T09:34:22.941Z,70.65
2023-05-12T09:36:49.368Z,69.58
2023-05-12T09:39:15.731Z,69.15
2023-05-12T09:41:42.140Z,68.19
2023-05-12T09:44:08.522Z,67.39
2023-05-12T09:46:35.216Z,67.90
2023-05-12T09:49:01.659Z,68.17
2023-05-12T09:51:28.090Z,67.59
2023-05-12T09:53:54.460Z,68.87
2023-05-12T09:56:21.251Z,69.80
2023-05-12T09:58:47.592Z,70.17
2023-05-12T10:01:22.922Z,69.98
2023-05-12T10:03:40.440Z,68.77
2023-05-12T10:06:07.843Z,67.92
2023-05-12T10:08:33.214Z,66.64
2023-05-12T10:10:59.655Z,67.20
2023-05-12T10:13:26.030Z,67.17
2023-05-12T10:15:52.425Z,68.15
2023-05-12T10:18:18.845Z,69.02
2023-05-12T10:20:45.252Z,70.36
2023-05-12T10:23:11.666Z,69.96
2023-05-12T10:25:38.110Z,70.05
2023-05-12T10:28:04.711Z,69.42
2023-05-12T10:30:31.105Z,68.91
2023-05-12T10:32:57.583Z,68.79
2023-05-12T10:35:23.893Z,69.03
2023-05-12T10:37:50.319Z,69.16
2023-05-12T10:40:16.793Z,68.97
2023-05-12T10:42:43.271Z,67.82
2023-05-12T10:45:09.560Z,66.87
2023-05-12T10:47:36.012Z,65.52
2023-05-12T10:50:02.353Z,64.58
2023-05-12T10:52:28.818Z,64.09
2023-05-12T10:54:55.224Z,64.57
2023-05-12T10:57:21.932Z,64.55
2023-05-12T10:59:48.220Z,64.36
2023-05-12T11:02:14.698Z,63.74
2023-05-12T11:04:40.987Z,64.29
2023-05-12T11:07:07.857Z,64.25
2023-05-12T11:09:34.744Z,64.44
2023-05-12T11:12:02.895Z,63.98
2023-05-12T11:14:28.909Z,63.65
2023-05-12T11:16:55.303Z,63.49
2023-05-12T11:19:21.671Z,62.46
2023-05-12T11:21:48.085Z,61.10
2023-05-12T11:24:14.455Z,61.10
2023-05-12T11:26:40.893Z,60.57
2023-05-12T11:29:07.210Z,58.73
2023-05-12T11:31:33.659Z,58.36
2023-05-12T11:34:10.816Z,59.32
2023-05-12T11:36:26.484Z,59.07
2023-05-12T11:38:53.235Z,58.48
2023-05-12T11:41:20.986Z,57.33
2023-05-12T11:43:49.011Z,57.38
2023-05-12T11:46:13.764Z,57.14
2023-05-12T11:48:40.109Z,56.54
2023-05-12T11:51:06.760Z,56.47
2023-05-12T11:53:33.181Z,56.60
2023-05-12T11:55:59.602Z,55.25
2023-05-12T11:58:26.031Z,55.99
2023-05-12T12:00:52.403Z,55.54
2023-05-12T12:03:19.000Z,56.13
2023-05-12T12:05:45.246Z,56.53
2023-05-12T12:08:11.598Z,56.70
2023-05-12T12:10:38.268Z,55.54
2023-05-12T12:13:04.701Z,55.75
2023-05-12T12:15:31.108Z,56.38
2023-05-12T12:17:57.540Z,56.92
2023-05-12T12:20:23.903Z,57.88
2023-05-12T12:22:50.334Z,58.30
2023-05-12T12:25:16.767Z,58.68
2023-05-12T12:27:43.128Z,58.10
2023-05-12T12:30:09.502Z,57.05
2023-05-12T12:32:35.943Z,57.19
2023-05-12T12:35:02.342Z,57.43
2023-05-12T12:37:28.762Z,57.28
2023-05-12T12:39:55.172Z,57.45
2023-05-12T12:42:21.550Z,57.56
2023-05-12T12:44:47.987Z,57.57
2023-05-12T12:47:14.512Z,57.30
2023-05-12T12:49:40.783Z,57.24
2023-05-12T12:52:07.156Z,56.95
2023-05-12T12:54:33.594Z,56.60
2023-05-12T12:57:00.399Z,56.52
2023-05-12T12:59:26.848Z,55.85
2023-05-12T13:01:53.337Z,56.33
2023-05-12T13:04:19.838Z,56.75
2023-05-12T13:06:46.249Z,55.29
2023-05-12T13:09:12.671Z,54.79
2023-05-12T13:11:39.015Z,55.72
2023-05-12T13:14:05.485Z,55.21
2023-05-12T13:16:32.018Z,54.45
2023-05-12T13:18:58.941Z,54.44
2023-05-12T13:21:25.172Z,54.89
2023-05-12T13:23:53.178Z,55.36
2023-05-12T13:26:19.518Z,55.79
2023-05-12T13:28:45.933Z,55.81
2023-05-12T13:31:12.470Z,55.23
2023-05-12T13:33:38.761Z,54.48
2023-05-12T13:36:05.237Z,54.32
2023-05-12T13:38:31.603Z,54.19
2023-05-12T13:40:58.004Z,54.65
2023-05-12T13:43:25.862Z,54.58
2023-05-12T13:45:52.338Z,55.09
2023-05-12T13:48:19.235Z,54.79
2023-05-12T13:50:45.548Z,54.74
2023-05-12T13:53:12.240Z,55.01
2023-05-12T13:55:40.581Z,54.79
2023-05-12T13:58:05.057Z,54.89
2023-05-12T14:00:31.427Z,55.01
2023-05-12T14:02:58.145Z,54.48
2023-05-12T14:05:24.863Z,54.47
2023-05-12T14:07:50.964Z,54.41
2023-05-12T14:10:17.376Z,53.85
2023-05-12T14:12:43.754Z,53.24
2023-05-12T14:15:24.053Z,53.68
2023-05-12T14:17:36.602Z,54.58
2023-05-12T14:20:03.192Z,53.02
2023-05-12T14:22:29.580Z,52.68
2023-05-12T14:24:56.016Z,53.20
2023-05-12T14:27:22.323Z,53.71
2023-05-12T14:29:48.891Z,54.11
2023-05-12T14:32:15.262Z,54.34
2023-05-12T14:34:41.851Z,53.34
2023-05-12T14:37:08.289Z,53.31
2023-05-12T14:39:34.698Z,53.46
2023-05-12T14:42:01.110Z,53.16
2023-05-12T14:44:27.677Z,53.34
2023-05-12T14:46:54.119Z,53.27
2023-05-12T14:49:20.503Z,53.69
2023-05-12T14:51:46.947Z,53.36
2023-05-12T14:54:24.731Z,51.93
2023-05-12T14:56:39.784Z,51.95
2023-05-12T14:59:08.212Z,51.66
2023-05-12T15:01:34.672Z,52.19
2023-05-12T15:04:01.008Z,52.80
2023-05-12T15:06:27.463Z,53.13
2023-05-12T15:08:54.278Z,53.58
2023-05-12T15:11:20.702Z,53.69
2023-05-12T15:13:47.155Z,53.39
2023-05-12T15:16:13.530Z,53.45
2023-05-12T15:18:39.956Z,53.44
2023-05-12T15:21:06.358Z,53.08
2023-05-12T15:23:32.719Z,52.71
2023-05-12T15:26:03.276Z,52.25
2023-05-12T15:28:25.570Z,52.50
2023-05-12T15:30:52.130Z,52.52
2023-05-12T15:33:18.450Z,52.61
2023-05-12T15:35:44.915Z,52.98
2023-05-12T15:38:11.281Z,53.55
2023-05-12T15:40:38.077Z,53.52
2023-05-12T15:43:04.537Z,53.67
2023-05-12T15:45:30.943Z,53.91
2023-05-12T15:47:57.461Z,54.02
2023-05-12T15:50:24.075Z,53.79
2023-05-12T15:52:50.475Z,53.76
2023-05-12T15:55:16.949Z,54.12
2023-05-12T15:57:43.312Z,53.61
2023-05-12T16:00:09.885Z,53.54
2023-05-12T16:02:36.398Z,52.98
2023-05-12T16:05:02.724Z,52.64
2023-05-12T16:07:29.344Z,52.99
2023-05-12T16:09:55.701Z,52.55
2023-05-12T16:12:22.090Z,52.25
2023-05-12T16:14:48.443Z,52.42
2023-05-12T16:17:15.093Z,52.35
2023-05-12T16:19:41.286Z,52.53
2023-05-12T16:22:07.744Z,52.65
2023-05-12T16:24:34.168Z,52.81
2023-05-12T16:27:00.578Z,52.82
2023-05-12T16:29:26.997Z,52.92
2023-05-12T16:31:53.387Z,52.73
2023-05-12T16:34:19.760Z,52.75
2023-05-12T16:36:46.199Z,52.96
2023-05-12T16:39:12.620Z,53.10
2023-05-12T16:41:39.046Z,53.43
2023-05-12T16:44:05.426Z,53.30
2023-05-12T16:46:31.904Z,53.50
2023-05-12T16:48:58.521Z,53.74
2023-05-12T16:51:24.622Z,53.98
2023-05-12T16:53:51.000Z,53.90
2023-05-12T16:56:17.424Z,54.01
2023-05-12T16:58:43.830Z,54.16
2023-05-12T17:01:10.288Z,54.20
2023-05-12T17:03:36.722Z,54.41
2023-05-12T17:06:03.060Z,54.31
2023-05-12T17:08:29.443Z,54.42
2023-05-12T17:10:55.851Z,54.64
2023-05-12T17:13:22.235Z,54.74
2023-05-12T17:15:48.692Z,54.88
2023-05-12T17:18:15.094Z,54.94
2023-05-12T17:20:41.458Z,55.03
2023-05-12T17:23:07.842Z,54.93
2023-05-12T17:25:34.279Z,54.91
2023-05-12T17:28:00.662Z,54.79
2023-05-12T17:30:27.033Z,54.73
2023-05-12T17:32:53.459Z,54.89
2023-05-12T17:35:20.015Z,55.13
2023-05-12T17:37:46.275Z,55.22
2023-05-12T17:40:12.618Z,55.24
2023-05-12T17:42:38.989Z,55.39
2023-05-12T17:45:05.427Z,55.27
2023-05-12T17:47:31.929Z,55.27
2023-05-12T17:49:58.268Z,55.34
2023-05-12T17:52:24.636Z,55.45
2023-05-12T17:54:51.083Z,55.73
2023-05-12T17:57:17.449Z,55.68
2023-05-12T17:59:43.861Z,55.90
2023-05-12T18:02:10.297Z,56.05
2023-05-12T18:04:36.642Z,56.11
2023-05-12T18:07:03.029Z,56.26
2023-05-12T18:09:29.399Z,56.36
2023-05-12T18:11:55.876Z,56.45
2023-05-12T18:14:22.261Z,56.44
2023-05-12T18:16:48.715Z,56.72
2023-05-12T18:19:15.152Z,56.92
2023-05-12T18:21:41.475Z,57.13
2023-05-12T18:24:07.877Z,57.33
2023-05-12T18:26:34.284Z,57.76
2023-05-12T18:29:00.704Z,57.81
2023-05-12T18:31:27.279Z,57.96
2023-05-12T18:33:53.631Z,58.00
2023-05-12T18:36:20.036Z,58.05
2023-05-12T18:38:46.474Z,58.25
2023-05-12T18:41:12.891Z,58.19
2023-05-12T18:43:39.312Z,58.12
2023-05-12T18:46:05.727Z,58.33
2023-05-12T18:48:32.122Z,58.07
2023-05-12T18:50:58.516Z,58.09
2023-05-12T18:53:25.139Z,58.19
2023-05-12T18:55:51.541Z,58.40
2023-05-12T18:58:17.949Z,58.44
2023-05-12T19:00:44.365Z,58.51
2023-05-12T19:03:11.037Z,58.48
2023-05-12T19:05:37.431Z,58.90
2023-05-12T19:08:03.818Z,59.33
2023-05-12T19:10:30.235Z,59.20
2023-05-12T19:12:57.124Z,59.20
2023-05-12T19:15:23.620Z,59.31
2023-05-12T19:17:50.299Z,59.45
2023-05-12T19:20:16.681Z,59.37
2023-05-12T19:22:43.056Z,59.45
2023-05-12T19:25:09.485Z,59.60
2023-05-12T19:27:35.907Z,59.75
2023-05-12T19:30:02.322Z,59.91
2023-05-12T19:32:28.714Z,60.29
2023-05-12T19:34:55.094Z,60.48
2023-05-12T19:37:21.521Z,60.66
2023-05-12T19:39:47.893Z,60.51
2023-05-12T19:42:14.280Z,60.80
2023-05-12T19:44:40.660Z,60.99
2023-05-12T19:47:07.036Z,61.14
2023-05-12T19:49:35.701Z,60.96
2023-05-12T19:52:02.072Z,61.33
2023-05-12T19:54:28.444Z,61.22
2023-05-12T19:56:54.862Z,61.36
2023-05-12T19:59:21.414Z,61.21
2023-05-12T20:01:47.854Z,61.19
2023-05-12T20:04:14.169Z,61.31
2023-05-12T20:06:40.554Z,61.51
2023-05-12T20:09:07.000Z,61.38
2023-05-12T20:11:33.368Z,61.77
2023-05-12T20:13:59.793Z,61.68
2023-05-12T20:16:26.255Z,61.75
2023-05-12T20:18:52.618Z,61.84
2023-05-12T20:21:18.991Z,62.01
2023-05-12T20:23:45.372Z,62.09
2023-05-12T20:26:11.757Z,62.29
2023-05-12T20:28:38.171Z,62.46
2023-05-12T20:31:04.584Z,62.33
2023-05-12T20:33:30.958Z,62.35
2023-05-12T20:35:57.393Z,62.70
2023-05-12T20:38:23.851Z,62.82
2023-05-12T20:40:50.234Z,63.01
2023-05-12T20:43:16.609Z,62.78
2023-05-12T20:45:43.096Z,62.92
2023-05-12T20:48:09.504Z,63.07
2023-05-12T20:50:35.825Z,63.13
2023-05-12T20:53:02.211Z,63.04
2023-05-12T20:55:28.643Z,62.94
2023-05-12T20:57:55.062Z,62.61
2023-05-12T21:00:21.483Z,62.87
2023-05-12T21:02:47.944Z,63.12
2023-05-12T21:05:14.294Z,63.02
2023-05-12T21:07:40.662Z,63.31
2023-05-12T21:10:07.088Z,63.54
2023-05-12T21:12:33.489Z,63.56
2023-05-12T21:14:59.904Z,63.20
2023-05-12T21:17:26.317Z,62.93
2023-05-12T21:19:52.711Z,62.91
2023-05-12T21:22:19.071Z,62.78
2023-05-12T21:24:45.450Z,62.95
2023-05-12T21:27:11.895Z,62.56
2023-05-12T21:29:38.321Z,62.41
2023-05-12T21:32:04.694Z,62.54
2023-05-12T21:34:31.052Z,62.85
2023-05-12T21:36:57.447Z,62.82
2023-05-12T21:39:23.896Z,62.62
2023-05-12T21:41:50.259Z,62.84
2023-05-12T21:44:16.648Z,62.96
2023-05-12T21:46:43.127Z,62.85
2023-05-12T21:49:09.477Z,62.71
2023-05-12T21:51:35.833Z,62.82
2023-05-12T21:54:02.337Z,62.35
2023-05-12T21:56:28.663Z,62.42
2023-05-12T21:58:55.071Z,62.43
2023-05-12T22:01:21.588Z,62.21
2023-05-12T22:03:47.926Z,62.39
2023-05-12T22:06:14.289Z,63.45
2023-05-12T22:08:40.720Z,66.72
2023-05-12T22:11:07.070Z,70.07
2023-05-12T22:13:33.461Z,67.54
2023-05-12T22:15:59.961Z,66.04
2023-05-12T22:18:26.330Z,65.17
2023-05-12T22:23:18.921Z,64.78
2023-05-12T22:25:45.446Z,64.58
2023-05-12T22:28:11.823Z,64.49
2023-05-12T22:30:38.190Z,64.18
2023-05-12T22:33:04.618Z,63.93
2023-05-12T22:35:30.996Z,64.00
2023-05-12T22:37:57.362Z,63.28
2023-05-12T22:40:23.762Z,62.78
2023-05-12T22:42:50.177Z,62.26
2023-05-12T22:45:16.540Z,62.40
2023-05-12T22:47:43.000Z,65.41
2023-05-12T22:50:09.337Z,64.21
2023-05-12T22:52:35.908Z,62.91
2023-05-12T22:55:02.282Z,62.74
2023-05-12T22:57:28.693Z,62.71
2023-05-12T22:59:55.097Z,62.54
2023-05-12T23:02:21.499Z,62.93
2023-05-12T23:04:47.836Z,63.44
2023-05-12T23:07:14.266Z,63.67
2023-05-12T23:09:40.632Z,64.01
2023-05-12T23:12:07.000Z,65.12
2023-05-12T23:14:33.424Z,65.83
2023-05-12T23:16:59.994Z,65.74
2023-05-12T23:19:26.329Z,65.92
2023-05-12T23:21:52.701Z,65.76
2023-05-12T23:24:19.099Z,65.62
2023-05-12T23:26:45.476Z,65.71
2023-05-12T23:29:11.862Z,65.78
2023-05-12T23:31:38.288Z,65.76
2023-05-12T23:34:04.628Z,66.05
2023-05-12T23:36:31.044Z,66.09
2023-05-12T23:38:57.611Z,66.43
2023-05-12T23:41:24.044Z,66.46
2023-05-12T23:43:50.444Z,66.35
2023-05-12T23:46:16.928Z,66.33
2023-05-12T23:48:43.514Z,66.11
2023-05-12T23:51:09.923Z,65.68
2023-05-12T23:53:36.299Z,65.96
2023-05-12T23:56:02.750Z,65.62
2023-05-12T23:58:29.092Z,65.85
